createdAt,value
2022-08-24T00:01:28.175Z,20.72
2022-08-24T00:03:59.793Z,20.96
2022-08-24T00:06:28.611Z,20.41
2022-08-24T00:08:57.611Z,20.86
2022-08-24T00:11:25.640Z,20.88
2022-08-24T00:13:53.378Z,20.74
2022-08-24T00:16:22.278Z,20.74
2022-08-24T00:18:49.787Z,20.93
2022-08-24T00:21:17.388Z,20.96
2022-08-24T00:23:46.546Z,20.64
2022-08-24T00:26:14.238Z,20.72
2022-08-24T00:28:41.855Z,20.69
2022-08-24T00:31:09.538Z,20.77
2022-08-24T00:33:37.370Z,20.80
2022-08-24T00:36:05.466Z,20.38
2022-08-24T00:38:35.670Z,20.76
2022-08-24T00:41:04.553Z,20.55
2022-08-24T00:43:33.084Z,20.53
2022-08-24T00:46:09.838Z,20.68
2022-08-24T00:48:40.642Z,20.63
2022-08-24T00:51:39.893Z,20.58
2022-08-24T00:54:12.428Z,20.75
2022-08-24T00:56:46.509Z,20.19
2022-08-24T00:59:19.341Z,20.20
2022-08-24T01:01:48.815Z,20.21
2022-08-24T01:04:21.723Z,20.43
2022-08-24T01:06:49.977Z,20.46
2022-08-24T01:09:17.410Z,20.65
2022-08-24T01:11:47.159Z,20.16
2022-08-24T01:14:14.845Z,20.47
2022-08-24T01:17:00.772Z,20.36
2022-08-24T01:19:36.497Z,20.70
2022-08-24T01:22:34.475Z,19.94
2022-08-24T01:25:02.233Z,19.95
2022-08-24T01:27:29.945Z,20.39
2022-08-24T01:30:00.250Z,20.14
2022-08-24T01:32:28.068Z,20.02
2022-08-24T01:34:56.572Z,20.03
2022-08-24T01:37:24.412Z,20.27
2022-08-24T01:39:54.728Z,20.51
2022-08-24T01:42:22.392Z,20.41
2022-08-24T01:44:49.763Z,20.21
2022-08-24T01:47:17.530Z,20.53
2022-08-24T01:49:47.997Z,20.37
2022-08-24T01:52:18.826Z,20.76
2022-08-24T01:54:46.991Z,20.15
2022-08-24T01:57:17.283Z,20.23
2022-08-24T01:59:44.833Z,20.33
2022-08-24T02:02:18.885Z,20.58
2022-08-24T02:04:46.594Z,20.06
2022-08-24T02:07:14.075Z,20.63
2022-08-24T02:09:41.804Z,20.42
2022-08-24T02:12:09.873Z,20.77
2022-08-24T02:14:37.690Z,20.72
2022-08-24T02:17:06.637Z,20.60
2022-08-24T02:19:35.281Z,20.83
2022-08-24T02:22:37.336Z,20.86
2022-08-24T02:25:05.546Z,20.54
2022-08-24T02:27:33.386Z,20.75
2022-08-24T02:30:00.932Z,20.78
2022-08-24T02:32:28.676Z,20.48
2022-08-24T02:34:56.075Z,20.42
2022-08-24T02:37:23.670Z,20.76
2022-08-24T02:39:52.466Z,20.52
2022-08-24T02:42:20.198Z,20.31
2022-08-24T02:44:48.149Z,20.24
2022-08-24T02:47:17.653Z,20.34
2022-08-24T02:49:45.144Z,20.33
2022-08-24T02:52:12.923Z,20.68
2022-08-24T02:54:42.029Z,20.67
2022-08-24T02:57:09.555Z,20.57
2022-08-24T02:59:37.056Z,20.65
2022-08-24T03:02:05.671Z,20.69
2022-08-24T03:04:33.280Z,20.13
2022-08-24T03:07:00.937Z,20.03
2022-08-24T03:09:28.847Z,20.62
2022-08-24T03:11:57.981Z,20.46
2022-08-24T03:14:25.566Z,20.52
2022-08-24T03:16:54.561Z,20.46
2022-08-24T03:19:22.810Z,20.24
2022-08-24T03:21:51.297Z,20.27
2022-08-24T03:24:18.964Z,20.20
2022-08-24T03:26:46.432Z,20.09
2022-08-24T03:29:15.808Z,20.35
2022-08-24T03:31:44.480Z,19.86
2022-08-24T03:34:14.677Z,20.12
2022-08-24T03:36:46.609Z,19.97
2022-08-24T03:39:15.778Z,20.08
2022-08-24T03:41:43.385Z,20.33
2022-08-24T03:44:10.845Z,20.21
2022-08-24T03:46:38.858Z,20.36
2022-08-24T03:49:08.693Z,20.51
2022-08-24T03:51:37.391Z,20.58
2022-08-24T03:54:07.640Z,20.53
2022-08-24T03:56:35.383Z,20.33
2022-08-24T03:59:03.228Z,20.39
2022-08-24T04:01:31.255Z,20.24
2022-08-24T04:03:59.843Z,20.06
2022-08-24T04:06:27.950Z,20.15
2022-08-24T04:08:56.031Z,20.13
2022-08-24T04:11:26.654Z,20.16
2022-08-24T04:13:59.339Z,20.45
2022-08-24T04:16:29.650Z,20.20
2022-08-24T04:18:59.188Z,20.44
2022-08-24T04:21:32.880Z,20.54
2022-08-24T04:24:04.854Z,20.41
2022-08-24T04:26:45.480Z,20.47
2022-08-24T04:29:15.862Z,19.89
2022-08-24T04:31:44.056Z,20.23
2022-08-24T04:34:12.544Z,19.88
2022-08-24T04:36:42.435Z,20.23
2022-08-24T04:39:10.128Z,20.17
2022-08-24T04:41:38.021Z,20.21
2022-08-24T04:44:06.620Z,20.06
2022-08-24T04:46:35.340Z,20.14
2022-08-24T04:49:02.770Z,20.21
2022-08-24T04:51:31.686Z,20.43
2022-08-24T04:54:05.337Z,20.54
2022-08-24T04:56:32.754Z,20.56
2022-08-24T04:59:00.790Z,20.10
2022-08-24T05:01:29.823Z,20.15
2022-08-24T05:03:57.379Z,20.75
2022-08-24T05:06:27.626Z,20.87
2022-08-24T05:08:57.336Z,20.79
2022-08-24T05:11:26.482Z,21.01
2022-08-24T05:13:56.006Z,21.03
2022-08-24T05:16:25.664Z,21.53
2022-08-24T05:18:54.775Z,21.28
2022-08-24T05:21:23.745Z,21.41
2022-08-24T05:23:53.067Z,21.60
2022-08-24T05:26:24.329Z,21.63
2022-08-24T05:28:57.096Z,22.08
2022-08-24T05:31:28.043Z,22.24
2022-08-24T05:33:56.129Z,22.34
2022-08-24T05:36:29.529Z,22.23
2022-08-24T05:38:58.817Z,22.63
2022-08-24T05:41:26.704Z,22.85
2022-08-24T05:43:54.817Z,23.28
2022-08-24T05:46:22.679Z,23.08
2022-08-24T05:48:52.830Z,23.01
2022-08-24T05:51:22.102Z,23.58
2022-08-24T05:53:51.241Z,23.32
2022-08-24T05:56:19.691Z,23.49
2022-08-24T05:58:47.463Z,23.34
2022-08-24T06:01:24.560Z,23.15
2022-08-24T06:03:53.591Z,23.81
2022-08-24T06:06:22.530Z,24.43
2022-08-24T06:08:51.974Z,24.37
2022-08-24T06:11:39.590Z,24.88
2022-08-24T06:14:12.067Z,24.26
2022-08-24T06:16:45.222Z,24.73
2022-08-24T06:19:14.515Z,24.83
2022-08-24T06:21:43.509Z,25.21
2022-08-24T06:24:11.642Z,24.43
2022-08-24T06:26:57.496Z,24.27
2022-08-24T06:29:25.189Z,23.98
2022-08-24T06:31:54.583Z,24.16
2022-08-24T06:34:24.251Z,24.40
2022-08-24T06:36:52.820Z,24.41
2022-08-24T06:39:21.551Z,24.39
2022-08-24T06:41:50.144Z,24.95
2022-08-24T06:44:18.848Z,25.12
2022-08-24T06:46:46.928Z,24.78
2022-08-24T06:49:14.453Z,25.50
2022-08-24T06:51:42.118Z,24.42
2022-08-24T06:54:10.446Z,24.89
2022-08-24T06:56:38.630Z,25.03
2022-08-24T06:59:06.452Z,25.09
2022-08-24T07:01:34.082Z,25.18
2022-08-24T07:04:01.682Z,25.10
2022-08-24T07:06:36.822Z,25.78
2022-08-24T07:09:05.337Z,25.76
2022-08-24T07:11:35.139Z,25.39
2022-08-24T07:14:02.710Z,25.45
2022-08-24T07:16:31.040Z,25.68
2022-08-24T07:18:58.979Z,25.49
2022-08-24T07:21:28.335Z,25.33
2022-08-24T07:23:58.086Z,25.03
2022-08-24T07:26:28.077Z,24.91
2022-08-24T07:29:05.407Z,24.89
2022-08-24T07:31:35.482Z,25.21
2022-08-24T07:34:06.730Z,25.23
2022-08-24T07:36:35.172Z,25.96
2022-08-24T07:39:04.011Z,26.04
2022-08-24T07:42:09.069Z,25.85
2022-08-24T07:44:19.779Z,26.11
2022-08-24T07:46:47.227Z,25.94
2022-08-24T07:49:31.637Z,24.60
2022-08-24T07:52:02.078Z,24.67
2022-08-24T07:54:29.748Z,25.46
2022-08-24T07:56:59.913Z,25.60
2022-08-24T07:59:28.084Z,25.81
2022-08-24T08:01:55.992Z,25.16
2022-08-24T08:04:25.272Z,24.98
2022-08-24T08:06:53.787Z,25.13
2022-08-24T08:09:21.471Z,25.23
2022-08-24T08:11:49.877Z,24.70
2022-08-24T08:14:17.294Z,24.76
2022-08-24T08:16:45.867Z,24.52
2022-08-24T08:19:13.877Z,24.72
2022-08-24T08:22:05.289Z,24.53
2022-08-24T08:24:33.886Z,25.11
2022-08-24T08:27:01.306Z,25.48
2022-08-24T08:29:32.171Z,25.15
2022-08-24T08:32:01.195Z,24.90
2022-08-24T08:34:30.273Z,24.80
2022-08-24T08:36:58.741Z,25.28
2022-08-24T08:39:27.535Z,23.99
2022-08-24T08:42:02.389Z,24.58
2022-08-24T08:44:43.396Z,24.68
2022-08-24T08:47:31.213Z,24.62
2022-08-24T08:50:08.191Z,24.83
2022-08-24T08:52:57.939Z,25.09
2022-08-24T08:55:37.303Z,25.06
2022-08-24T08:58:17.477Z,25.22
2022-08-24T09:00:48.946Z,25.24
2022-08-24T09:03:28.748Z,25.45
2022-08-24T09:06:22.823Z,25.55
2022-08-24T09:09:05.502Z,25.62
2022-08-24T09:11:48.379Z,25.96
2022-08-24T09:14:47.700Z,26.16
2022-08-24T09:17:40.296Z,25.99
2022-08-24T09:20:26.095Z,26.10
2022-08-24T09:23:29.624Z,26.38
2022-08-24T09:26:34.338Z,26.85
2022-08-24T09:29:41.340Z,26.54
2022-08-24T09:32:28.499Z,26.84
2022-08-24T09:35:01.154Z,26.89
2022-08-24T09:37:33.542Z,27.08
2022-08-24T09:40:22.977Z,27.31
2022-08-24T09:43:22.357Z,27.16
2022-08-24T09:46:15.054Z,27.32
2022-08-24T09:49:20.195Z,27.07
2022-08-24T09:52:18.650Z,26.68
2022-08-24T09:54:55.242Z,26.23
2022-08-24T09:58:00.038Z,26.10
2022-08-24T10:00:39.680Z,26.52
2022-08-24T10:03:37.797Z,26.30
2022-08-24T10:06:18.496Z,26.64
2022-08-24T10:09:01.207Z,26.77
2022-08-24T10:11:49.839Z,26.46
2022-08-24T10:14:50.403Z,26.89
2022-08-24T10:17:28.659Z,26.59
2022-08-24T10:20:15.018Z,26.72
2022-08-24T10:23:25.903Z,26.47
2022-08-24T10:26:02.871Z,27.00
2022-08-24T10:29:08.625Z,27.37
2022-08-24T10:31:47.813Z,26.53
2022-08-24T10:34:20.960Z,27.00
2022-08-24T10:36:57.630Z,26.97
2022-08-24T10:39:45.803Z,26.99
2022-08-24T10:42:47.648Z,27.06
2022-08-24T10:45:17.585Z,26.86
2022-08-24T10:48:05.485Z,27.17
2022-08-24T10:50:42.213Z,26.94
2022-08-24T10:53:20.447Z,27.14
2022-08-24T10:55:57.578Z,27.07
2022-08-24T10:58:49.875Z,27.20
2022-08-24T11:01:22.808Z,26.72
2022-08-24T11:04:14.045Z,26.59
2022-08-24T11:06:45.198Z,26.46
2022-08-24T11:09:19.403Z,26.78
2022-08-24T11:11:50.099Z,26.77
2022-08-24T11:14:26.825Z,26.44
2022-08-24T11:17:14.296Z,26.78
2022-08-24T11:19:42.788Z,26.37
2022-08-24T11:22:37.041Z,26.68
2022-08-24T11:25:28.350Z,26.12
2022-08-24T11:28:25.733Z,26.36
2022-08-24T11:30:53.148Z,26.48
2022-08-24T11:33:30.398Z,26.93
2022-08-24T11:35:58.036Z,27.03
2022-08-24T11:38:31.645Z,27.13
2022-08-24T11:41:26.674Z,26.87
2022-08-24T11:44:37.378Z,26.65
2022-08-24T11:47:10.773Z,26.07
2022-08-24T11:50:17.718Z,26.01
2022-08-24T11:52:59.666Z,26.30
2022-08-24T11:55:46.763Z,25.85
2022-08-24T11:58:23.594Z,25.68
2022-08-24T12:01:36.423Z,25.51
2022-08-24T12:04:36.591Z,25.12
2022-08-24T12:07:29.098Z,23.55
2022-08-24T12:10:10.903Z,23.54
2022-08-24T12:13:29.594Z,24.41
2022-08-24T12:16:09.718Z,24.41
2022-08-24T12:18:55.710Z,24.50
2022-08-24T12:21:27.782Z,24.63
2022-08-24T12:24:03.346Z,24.60
2022-08-24T12:26:43.429Z,23.74
2022-08-24T12:29:26.027Z,23.93
2022-08-24T12:32:14.305Z,24.40
2022-08-24T12:34:54.198Z,24.37
2022-08-24T12:37:43.723Z,23.75
2022-08-24T12:40:24.511Z,24.18
2022-08-24T12:42:56.084Z,24.12
2022-08-24T12:45:24.212Z,24.06
2022-08-24T12:48:11.725Z,24.07
2022-08-24T12:50:46.473Z,24.50
2022-08-24T12:53:26.441Z,24.54
2022-08-24T12:56:07.470Z,24.72
2022-08-24T12:58:54.645Z,24.77
2022-08-24T13:01:29.244Z,24.66
2022-08-24T13:04:16.159Z,24.68
2022-08-24T13:06:49.343Z,24.73
2022-08-24T13:09:29.055Z,24.33
2022-08-24T13:12:00.825Z,24.14
2022-08-24T13:14:30.051Z,24.30
2022-08-24T13:16:57.360Z,24.96
2022-08-24T13:19:31.193Z,24.50
2022-08-24T13:22:15.844Z,24.61
2022-08-24T13:24:45.516Z,24.75
2022-08-24T13:27:13.107Z,24.72
2022-08-24T13:29:43.112Z,25.14
2022-08-24T13:32:18.140Z,25.16
2022-08-24T13:34:47.811Z,25.35
2022-08-24T13:37:22.650Z,24.94
2022-08-24T13:40:02.883Z,25.02
2022-08-24T13:42:51.713Z,24.89
2022-08-24T13:45:34.668Z,24.97
2022-08-24T13:48:16.251Z,25.04
2022-08-24T13:50:50.605Z,25.36
2022-08-24T13:53:41.497Z,25.30
2022-08-24T13:56:13.001Z,25.11
2022-08-24T13:59:18.192Z,24.98
2022-08-24T14:01:47.541Z,25.18
2022-08-24T14:04:36.445Z,25.38
2022-08-24T14:07:09.334Z,25.38
2022-08-24T14:10:26.284Z,25.58
2022-08-24T14:13:24.505Z,25.42
2022-08-24T14:16:20.893Z,25.40
2022-08-24T14:19:25.843Z,25.83
2022-08-24T14:22:06.041Z,25.47
2022-08-24T14:25:22.786Z,25.25
2022-08-24T14:28:11.825Z,25.29
2022-08-24T14:30:42.755Z,25.81
2022-08-24T14:33:28.765Z,25.79
2022-08-24T14:36:28.674Z,25.94
2022-08-24T14:39:06.236Z,25.97
2022-08-24T14:41:49.438Z,25.94
2022-08-24T14:44:46.238Z,25.79
2022-08-24T14:47:19.782Z,25.89
2022-08-24T14:50:12.659Z,25.70
2022-08-24T14:53:11.182Z,25.79
2022-08-24T14:55:45.582Z,25.93
2022-08-24T14:58:29.301Z,26.10
2022-08-24T15:01:03.456Z,25.91
2022-08-24T15:03:47.852Z,25.87
2022-08-24T15:06:34.281Z,26.01
2022-08-24T15:09:28.021Z,26.09
2022-08-24T15:12:14.486Z,25.89
2022-08-24T15:14:48.001Z,26.12
2022-08-24T15:17:28.225Z,26.01
2022-08-24T15:20:04.470Z,25.93
2022-08-24T15:23:05.879Z,25.86
2022-08-24T15:25:42.578Z,25.73
2022-08-24T15:28:24.055Z,25.69
2022-08-24T15:30:56.845Z,25.83
2022-08-24T15:33:25.195Z,25.89
2022-08-24T15:36:14.306Z,25.39
2022-08-24T15:38:42.971Z,25.62
2022-08-24T15:41:18.036Z,25.67
2022-08-24T15:43:51.511Z,25.35
2022-08-24T15:46:21.024Z,25.41
2022-08-24T15:48:50.642Z,25.24
2022-08-24T15:51:33.382Z,25.41
2022-08-24T15:54:15.229Z,25.05
2022-08-24T15:56:46.763Z,25.27
2022-08-24T15:59:28.374Z,25.14
2022-08-24T16:02:17.198Z,24.79
2022-08-24T16:04:48.686Z,24.65
2022-08-24T16:07:23.576Z,24.99
2022-08-24T16:10:07.560Z,25.15
2022-08-24T16:12:35.080Z,25.19
2022-08-24T16:15:11.407Z,25.43
2022-08-24T16:17:51.290Z,25.77
2022-08-24T16:20:25.193Z,25.55
2022-08-24T16:23:00.696Z,25.65
2022-08-24T16:28:23.713Z,25.66
2022-08-24T16:30:54.934Z,25.48
2022-08-24T16:33:31.167Z,25.61
2022-08-24T16:36:11.433Z,25.72
2022-08-24T16:38:46.160Z,25.85
2022-08-24T16:41:17.211Z,25.58
2022-08-24T16:43:45.917Z,25.80
2022-08-24T16:46:17.294Z,25.84
2022-08-24T16:48:44.711Z,25.94
2022-08-24T16:51:12.102Z,25.89
2022-08-24T16:53:42.821Z,25.79
2022-08-24T16:56:12.588Z,25.74
2022-08-24T16:58:45.425Z,25.52
2022-08-24T17:01:14.094Z,25.61
2022-08-24T17:03:41.607Z,25.97
2022-08-24T17:06:12.400Z,25.95
2022-08-24T17:08:40.086Z,25.83
2022-08-24T17:11:07.998Z,25.77
2022-08-24T17:13:51.158Z,25.74
2022-08-24T17:16:20.622Z,25.57
2022-08-24T17:18:48.465Z,25.68
2022-08-24T17:21:16.005Z,25.50
2022-08-24T17:23:44.893Z,25.34
2022-08-24T17:26:20.374Z,25.30
2022-08-24T17:28:51.591Z,25.46
2022-08-24T17:31:19.380Z,25.52
2022-08-24T17:33:46.821Z,25.41
2022-08-24T17:36:15.700Z,25.19
2022-08-24T17:38:48.526Z,24.86
2022-08-24T17:41:19.069Z,24.72
2022-08-24T17:43:46.717Z,24.68
2022-08-24T17:46:14.652Z,24.84
2022-08-24T17:48:46.402Z,25.02
2022-08-24T17:51:14.671Z,25.00
2022-08-24T17:53:42.299Z,24.86
2022-08-24T17:56:12.751Z,24.73
2022-08-24T17:59:00.310Z,24.69
2022-08-24T18:01:28.457Z,24.77
2022-08-24T18:03:56.195Z,24.75
2022-08-24T18:06:24.851Z,24.83
2022-08-24T18:08:52.802Z,24.63
2022-08-24T18:11:25.274Z,24.37
2022-08-24T18:13:54.385Z,24.47
2022-08-24T18:16:24.518Z,24.57
2022-08-24T18:18:52.522Z,24.29
2022-08-24T18:21:20.386Z,24.73
2022-08-24T18:23:49.386Z,24.28
2022-08-24T18:26:21.888Z,24.32
2022-08-24T18:28:54.450Z,24.40
2022-08-24T18:31:23.918Z,24.14
2022-08-24T18:33:51.524Z,24.24
2022-08-24T18:36:19.169Z,24.27
2022-08-24T18:38:46.555Z,24.21
2022-08-24T18:41:14.825Z,24.02
2022-08-24T18:43:42.512Z,24.07
2022-08-24T18:46:09.964Z,24.11
2022-08-24T18:48:37.511Z,23.87
2022-08-24T18:51:05.421Z,23.79
2022-08-24T18:53:35.559Z,24.00
2022-08-24T18:56:09.302Z,24.04
2022-08-24T18:58:38.253Z,24.10
2022-08-24T19:01:06.487Z,23.96
2022-08-24T19:03:34.664Z,23.80
2022-08-24T19:06:02.686Z,23.80
2022-08-24T19:08:30.197Z,23.86
2022-08-24T19:10:57.802Z,23.45
2022-08-24T19:13:25.841Z,23.54
2022-08-24T19:15:53.665Z,23.77
2022-08-24T19:18:22.026Z,23.60
2022-08-24T19:20:53.289Z,23.51
2022-08-24T19:23:24.111Z,23.55
2022-08-24T19:25:52.517Z,23.52
2022-08-24T19:28:20.822Z,23.61
2022-08-24T19:30:49.314Z,23.88
2022-08-24T19:33:23.434Z,23.72
2022-08-24T19:35:52.382Z,23.73
2022-08-24T19:38:25.525Z,23.95
2022-08-24T19:40:55.611Z,23.50
2022-08-24T19:43:26.268Z,23.28
2022-08-24T19:46:08.631Z,23.64
2022-08-24T19:48:41.826Z,23.58
2022-08-24T19:51:10.387Z,23.28
2022-08-24T19:53:39.523Z,23.46
2022-08-24T19:56:07.781Z,23.32
2022-08-24T19:58:47.473Z,23.64
2022-08-24T20:01:20.424Z,23.05
2022-08-24T20:03:48.940Z,23.14
2022-08-24T20:06:18.202Z,23.17
2022-08-24T20:08:48.436Z,23.18
2022-08-24T20:11:17.195Z,23.13
2022-08-24T20:13:45.038Z,23.37
2022-08-24T20:16:16.033Z,23.39
2022-08-24T20:18:44.164Z,23.19
2022-08-24T20:21:11.572Z,23.26
2022-08-24T20:23:39.007Z,23.04
2022-08-24T20:26:07.417Z,22.92
2022-08-24T20:28:40.154Z,22.83
2022-08-24T20:31:09.461Z,22.98
2022-08-24T20:33:36.896Z,23.09
2022-08-24T20:36:05.466Z,23.32
2022-08-24T20:38:34.229Z,23.24
2022-08-24T20:41:01.860Z,23.07
2022-08-24T20:43:29.362Z,23.09
2022-08-24T20:45:57.068Z,23.10
2022-08-24T20:48:30.309Z,22.89
2022-08-24T20:50:58.692Z,23.14
2022-08-24T20:53:26.913Z,23.02
2022-08-24T20:55:56.721Z,22.80
2022-08-24T20:58:24.434Z,22.73
2022-08-24T21:00:52.055Z,22.89
2022-08-24T21:03:19.920Z,22.87
2022-08-24T21:05:48.689Z,22.85
2022-08-24T21:08:16.118Z,22.58
2022-08-24T21:10:44.699Z,22.81
2022-08-24T21:13:12.726Z,22.83
2022-08-24T21:15:41.437Z,22.76
2022-08-24T21:18:10.820Z,22.75
2022-08-24T21:20:39.126Z,22.76
2022-08-24T21:23:12.034Z,22.82
2022-08-24T21:25:40.019Z,22.79
2022-08-24T21:28:07.541Z,22.71
2022-08-24T21:30:35.720Z,22.73
2022-08-24T21:33:24.598Z,22.90
2022-08-24T21:35:53.936Z,22.88
2022-08-24T21:38:23.510Z,22.73
2022-08-24T21:40:53.038Z,22.54
2022-08-24T21:43:21.638Z,22.70
2022-08-24T21:45:52.549Z,22.60
2022-08-24T21:48:20.563Z,22.57
2022-08-24T21:50:48.779Z,22.62
2022-08-24T21:53:16.935Z,22.43
2022-08-24T21:55:44.383Z,22.60
2022-08-24T21:58:12.230Z,22.65
2022-08-24T22:00:39.960Z,22.66
2022-08-24T22:03:08.728Z,22.30
2022-08-24T22:05:36.228Z,22.23
2022-08-24T22:08:03.920Z,22.26
2022-08-24T22:10:31.772Z,22.11
2022-08-24T22:13:03.829Z,22.34
2022-08-24T22:15:33.215Z,22.55
2022-08-24T22:18:01.390Z,22.35
2022-08-24T22:20:28.786Z,22.55
2022-08-24T22:22:58.468Z,22.49
2022-08-24T22:25:25.987Z,22.26
2022-08-24T22:27:53.343Z,22.28
2022-08-24T22:30:21.024Z,22.36
2022-08-24T22:32:48.385Z,22.19
2022-08-24T22:35:15.966Z,22.26
2022-08-24T22:37:43.956Z,22.03
2022-08-24T22:40:12.591Z,22.06
2022-08-24T22:42:40.541Z,21.93
2022-08-24T22:45:09.914Z,22.01
2022-08-24T22:47:38.226Z,22.14
2022-08-24T22:50:06.169Z,21.89
2022-08-24T22:52:34.221Z,21.99
2022-08-24T22:55:01.783Z,21.83
2022-08-24T22:57:29.200Z,22.03
2022-08-24T22:59:58.005Z,21.77
2022-08-24T23:02:25.488Z,21.81
2022-08-24T23:04:53.263Z,21.92
2022-08-24T23:07:21.123Z,22.06
2022-08-24T23:09:49.067Z,22.04
2022-08-24T23:12:19.832Z,21.91
2022-08-24T23:14:50.316Z,21.65
2022-08-24T23:17:18.358Z,21.80
2022-08-24T23:20:01.290Z,21.71
2022-08-24T23:22:34.743Z,21.77
2022-08-24T23:25:02.564Z,21.86
2022-08-24T23:27:32.629Z,22.07
2022-08-24T23:30:07.228Z,21.99
2022-08-24T23:32:34.959Z,21.91
2022-08-24T23:35:02.661Z,22.03
2022-08-24T23:37:30.360Z,21.89
2022-08-24T23:39:58.286Z,21.61
2022-08-24T23:42:25.723Z,21.57
2022-08-24T23:44:53.311Z,21.31
2022-08-24T23:47:21.322Z,21.75
2022-08-24T23:49:49.160Z,21.88
2022-08-24T23:52:26.177Z,21.94
2022-08-24T23:55:17.998Z,21.96
2022-08-24T23:57:44.656Z,21.96
